sensor_id;sensor_type;location;lat;lon;timestamp;pressure;altitude;pressure_sealevel;temperature;humidity
59757;BME280;45631;51.962;5.974;2023-04-26T00:02:27;101754.94;;;3.18;100.00
59757;BME280;45631;51.962;5.974;2023-04-26T00:04:55;101761.97;;;3.12;100.00
59757;BME280;45631;51.962;5.974;2023-04-26T00:07:28;101759.22;;;3.21;100.00
59757;BME280;45631;51.962;5.974;2023-04-26T00:10:00;101757.69;;;3.09;100.00
59757;BME280;45631;51.962;5.974;2023-04-26T00:12:28;101757.88;;;3.00;100.00
59757;BME280;45631;51.962;5.974;2023-04-26T00:14:56;101755.56;;;2.84;100.00
59757;BME280;45631;51.962;5.974;2023-04-26T00:17:24;101758.91;;;2.91;100.00
59757;BME280;45631;51.962;5.974;2023-04-26T00:19:52;101761.59;;;2.86;100.00
59757;BME280;45631;51.962;5.974;2023-04-26T00:22:23;101757.16;;;2.93;100.00
59757;BME280;45631;51.962;5.974;2023-04-26T00:24:54;101754.63;;;2.88;100.00
59757;BME280;45631;51.962;5.974;2023-04-26T00:27:26;101763.94;;;3.00;100.00
59757;BME280;45631;51.962;5.974;2023-04-26T00:29:54;101758.84;;;2.94;100.00
59757;BME280;45631;51.962;5.974;2023-04-26T00:32:22;101755.28;;;3.01;100.00
59757;BME280;45631;51.962;5.974;2023-04-26T00:34:53;101757.13;;;2.95;100.00
59757;BME280;45631;51.962;5.974;2023-04-26T00:37:21;101759.94;;;2.82;100.00
59757;BME280;45631;51.962;5.974;2023-04-26T00:39:50;101758.19;;;2.83;100.00
59757;BME280;45631;51.962;5.974;2023-04-26T00:42:21;101762.53;;;2.81;100.00
59757;BME280;45631;51.962;5.974;2023-04-26T00:44:51;101762.56;;;2.79;100.00
59757;BME280;45631;51.962;5.974;2023-04-26T00:47:23;101762.91;;;2.61;100.00
59757;BME280;45631;51.962;5.974;2023-04-26T00:49:52;101759.44;;;2.60;100.00
59757;BME280;45631;51.962;5.974;2023-04-26T00:52:20;101758.63;;;2.58;100.00
59757;BME280;45631;51.962;5.974;2023-04-26T00:54:49;101757.72;;;2.61;100.00
59757;BME280;45631;51.962;5.974;2023-04-26T00:57:17;101755.22;;;2.54;100.00
59757;BME280;45631;51.962;5.974;2023-04-26T00:59:45;101745.72;;;2.55;100.00
59757;BME280;45631;51.962;5.974;2023-04-26T01:02:15;101750.97;;;2.50;100.00
59757;BME280;45631;51.962;5.974;2023-04-26T01:04:44;101754.41;;;2.52;100.00
59757;BME280;45631;51.962;5.974;2023-04-26T01:07:13;101757.00;;;2.52;100.00
59757;BME280;45631;51.962;5.974;2023-04-26T01:09:43;101757.94;;;2.48;100.00
59757;BME280;45631;51.962;5.974;2023-04-26T01:12:12;101750.25;;;2.41;100.00
59757;BME280;45631;51.962;5.974;2023-04-26T01:14:40;101755.38;;;2.45;100.00
59757;BME280;45631;51.962;5.974;2023-04-26T01:17:09;101755.44;;;2.42;100.00
59757;BME280;45631;51.962;5.974;2023-04-26T01:19:49;101750.38;;;2.33;100.00
59757;BME280;45631;51.962;5.974;2023-04-26T01:22:17;101755.63;;;2.30;100.00
59757;BME280;45631;51.962;5.974;2023-04-26T01:24:49;101757.28;;;2.34;100.00
59757;BME280;45631;51.962;5.974;2023-04-26T01:27:17;101760.75;;;2.33;100.00
59757;BME280;45631;51.962;5.974;2023-04-26T01:29:45;101764.25;;;2.32;100.00
59757;BME280;45631;51.962;5.974;2023-04-26T01:32:13;101761.66;;;2.30;100.00
59757;BME280;45631;51.962;5.974;2023-04-26T01:34:41;101765.22;;;2.25;100.00
59757;BME280;45631;51.962;5.974;2023-04-26T01:37:09;101765.13;;;2.31;100.00
59757;BME280;45631;51.962;5.974;2023-04-26T01:39:37;101760.13;;;2.20;100.00
59757;BME280;45631;51.962;5.974;2023-04-26T01:42:07;101760.97;;;2.19;100.00
59757;BME280;45631;51.962;5.974;2023-04-26T01:44:35;101763.44;;;2.28;100.00
59757;BME280;45631;51.962;5.974;2023-04-26T01:47:03;101761.81;;;2.23;100.00
59757;BME280;45631;51.962;5.974;2023-04-26T01:49:34;101765.28;;;2.22;100.00
59757;BME280;45631;51.962;5.974;2023-04-26T01:52:02;101766.28;;;2.11;100.00
59757;BME280;45631;51.962;5.974;2023-04-26T01:54:31;101761.28;;;1.99;100.00
59757;BME280;45631;51.962;5.974;2023-04-26T01:56:59;101757.03;;;1.93;100.00
59757;BME280;45631;51.962;5.974;2023-04-26T01:59:29;101763.88;;;2.00;100.00
59757;BME280;45631;51.962;5.974;2023-04-26T02:01:57;101760.34;;;2.03;100.00
59757;BME280;45631;51.962;5.974;2023-04-26T02:04:26;101760.56;;;1.89;100.00
59757;BME280;45631;51.962;5.974;2023-04-26T02:06:54;101764.13;;;1.82;100.00
59757;BME280;45631;51.962;5.974;2023-04-26T02:09:22;101763.31;;;1.78;100.00
59757;BME280;45631;51.962;5.974;2023-04-26T02:11:53;101760.75;;;1.75;100.00
59757;BME280;45631;51.962;5.974;2023-04-26T02:14:22;101762.34;;;1.84;100.00
59757;BME280;45631;51.962;5.974;2023-04-26T02:16:51;101762.34;;;1.84;100.00
59757;BME280;45631;51.962;5.974;2023-04-26T02:19:19;101758.84;;;1.88;100.00
59757;BME280;45631;51.962;5.974;2023-04-26T02:21:51;101758.72;;;1.97;100.00
59757;BME280;45631;51.962;5.974;2023-04-26T02:24:22;101763.25;;;1.83;100.00
59757;BME280;45631;51.962;5.974;2023-04-26T02:26:51;101759.81;;;1.81;100.00
59757;BME280;45631;51.962;5.974;2023-04-26T02:29:20;101758.03;;;1.84;100.00
59757;BME280;45631;51.962;5.974;2023-04-26T02:32:09;101755.53;;;1.77;100.00
59757;BME280;45631;51.962;5.974;2023-04-26T02:34:41;101758.22;;;1.69;100.00
59757;BME280;45631;51.962;5.974;2023-04-26T02:37:10;101759.03;;;1.74;100.00
59757;BME280;45631;51.962;5.974;2023-04-26T02:39:38;101760.00;;;1.67;100.00
59757;BME280;45631;51.962;5.974;2023-04-26T02:42:07;101758.97;;;1.80;100.00
59757;BME280;45631;51.962;5.974;2023-04-26T02:44:35;101758.22;;;1.69;100.00
59757;BME280;45631;51.962;5.974;2023-04-26T02:47:05;101755.66;;;1.67;100.00
59757;BME280;45631;51.962;5.974;2023-04-26T02:49:35;101759.88;;;1.76;100.00
59757;BME280;45631;51.962;5.974;2023-04-26T02:52:03;101756.41;;;1.79;100.00
59757;BME280;45631;51.962;5.974;2023-04-26T02:54:31;101759.03;;;1.77;100.00
59757;BME280;45631;51.962;5.974;2023-04-26T02:56:59;101756.41;;;1.76;100.00
59757;BME280;45631;51.962;5.974;2023-04-26T02:59:27;101753.03;;;1.69;100.00
59757;BME280;45631;51.962;5.974;2023-04-26T03:01:55;101754.81;;;1.67;100.00
59757;BME280;45631;51.962;5.974;2023-04-26T03:04:24;101754.00;;;1.62;100.00
59757;BME280;45631;51.962;5.974;2023-04-26T03:06:53;101754.06;;;1.59;100.00
59757;BME280;45631;51.962;5.974;2023-04-26T03:09:24;101754.00;;;1.62;100.00
59757;BME280;45631;51.962;5.974;2023-04-26T03:11:52;101752.31;;;1.62;100.00
59757;BME280;45631;51.962;5.974;2023-04-26T03:14:20;101750.66;;;1.54;100.00
59757;BME280;45631;51.962;5.974;2023-04-26T03:16:48;101750.69;;;1.52;100.00
59757;BME280;45631;51.962;5.974;2023-04-26T03:19:16;101749.91;;;1.45;100.00
59757;BME280;45631;51.962;5.974;2023-04-26T03:21:44;101758.53;;;1.47;100.00
59757;BME280;45631;51.962;5.974;2023-04-26T03:24:14;101757.72;;;1.44;100.00
59757;BME280;45631;51.962;5.974;2023-04-26T03:26:42;101756.84;;;1.42;100.00
59757;BME280;45631;51.962;5.974;2023-04-26T03:29:10;101755.19;;;1.39;100.00
59757;BME280;45631;51.962;5.974;2023-04-26T03:31:39;101752.44;;;1.50;100.00
59757;BME280;45631;51.962;5.974;2023-04-26T03:34:07;101750.75;;;1.49;100.00
59757;BME280;45631;51.962;5.974;2023-04-26T03:36:35;101754.34;;;1.37;100.00
59757;BME280;45631;51.962;5.974;2023-04-26T03:39:06;101750.00;;;1.36;100.00
59757;BME280;45631;51.962;5.974;2023-04-26T03:41:39;101750.06;;;1.33;100.00
59757;BME280;45631;51.962;5.974;2023-04-26T03:44:07;101749.28;;;1.26;100.00
59757;BME280;45631;51.962;5.974;2023-04-26T03:46:35;101751.03;;;1.26;100.00
59757;BME280;45631;51.962;5.974;2023-04-26T03:49:03;101748.47;;;1.21;100.00
59757;BME280;45631;51.962;5.974;2023-04-26T03:51:31;101744.03;;;1.31;100.00
59757;BME280;45631;51.962;5.974;2023-04-26T03:53:59;101739.88;;;1.19;100.00
59757;BME280;45631;51.962;5.974;2023-04-26T03:56:28;101744.16;;;1.22;100.00
59757;BME280;45631;51.962;5.974;2023-04-26T03:58:57;101746.75;;;1.22;100.00
59757;BME280;45631;51.962;5.974;2023-04-26T04:01:25;101745.84;;;1.23;100.00
59757;BME280;45631;51.962;5.974;2023-04-26T04:03:54;101739.78;;;1.25;100.00
59757;BME280;45631;51.962;5.974;2023-04-26T04:06:22;101743.25;;;1.23;100.00
59757;BME280;45631;51.962;5.974;2023-04-26T04:08:53;101739.88;;;1.19;100.00
59757;BME280;45631;51.962;5.974;2023-04-26T04:11:21;101743.31;;;1.20;100.00
59757;BME280;45631;51.962;5.974;2023-04-26T04:13:49;101738.06;;;1.23;100.00
59757;BME280;45631;51.962;5.974;2023-04-26T04:16:22;101742.53;;;1.11;100.00
59757;BME280;45631;51.962;5.974;2023-04-26T04:18:50;101743.41;;;1.10;100.00
59757;BME280;45631;51.962;5.974;2023-04-26T04:21:18;101739.94;;;1.11;100.00
59757;BME280;45631;51.962;5.974;2023-04-26T04:23:49;101750.41;;;1.05;100.00
59757;BME280;45631;51.962;5.974;2023-04-26T04:26:19;101750.41;;;1.02;100.00
59757;BME280;45631;51.962;5.974;2023-04-26T04:28:47;101750.41;;;1.05;100.00
59757;BME280;45631;51.962;5.974;2023-04-26T04:31:17;101743.53;;;1.01;100.00
59757;BME280;45631;51.962;5.974;2023-04-26T04:33:47;101746.94;;;1.05;100.00
59757;BME280;45631;51.962;5.974;2023-04-26T04:36:15;101746.03;;;1.07;100.00
59757;BME280;45631;51.962;5.974;2023-04-26T04:38:43;101743.41;;;1.10;100.00
59757;BME280;45631;51.962;5.974;2023-04-26T04:41:11;101749.47;;;1.11;100.00
59757;BME280;45631;51.962;5.974;2023-04-26T04:43:40;101756.41;;;1.07;100.00
59757;BME280;45631;51.962;5.974;2023-04-26T04:46:08;101747.00;;;1.00;100.00
59757;BME280;45631;51.962;5.974;2023-04-26T04:48:38;101743.44;;;1.07;100.00
59757;BME280;45631;51.962;5.974;2023-04-26T04:51:08;101747.78;;;1.04;100.00
59757;BME280;45631;51.962;5.974;2023-04-26T04:53:36;101756.47;;;1.01;100.00
59757;BME280;45631;51.962;5.974;2023-04-26T04:56:05;101750.41;;;1.02;100.00
59757;BME280;45631;51.962;5.974;2023-04-26T04:58:33;101762.44;;;1.09;100.00
59757;BME280;45631;51.962;5.974;2023-04-26T05:01:01;101763.22;;;1.16;100.00
59757;BME280;45631;51.962;5.974;2023-04-26T05:03:29;101756.25;;;1.21;100.00
59757;BME280;45631;51.962;5.974;2023-04-26T05:05:59;101757.13;;;1.18;100.00
59757;BME280;45631;51.962;5.974;2023-04-26T05:08:29;101758.97;;;1.12;100.00
59757;BME280;45631;51.962;5.974;2023-04-26T05:10:57;101755.50;;;1.10;100.00
59757;BME280;45631;51.962;5.974;2023-04-26T05:13:25;101758.16;;;1.07;100.00
59757;BME280;45631;51.962;5.974;2023-04-26T05:15:53;101761.56;;;1.12;100.00
59757;BME280;45631;51.962;5.974;2023-04-26T05:18:21;101763.22;;;1.14;100.00
59757;BME280;45631;51.962;5.974;2023-04-26T05:20:50;101769.31;;;1.13;100.00
59757;BME280;45631;51.962;5.974;2023-04-26T05:23:18;101764.03;;;1.20;100.00
59757;BME280;45631;51.962;5.974;2023-04-26T05:25:49;101770.09;;;1.17;100.00
59757;BME280;45631;51.962;5.974;2023-04-26T05:28:20;101776.13;;;1.21;100.00
59757;BME280;45631;51.962;5.974;2023-04-26T05:30:49;101770.91;;;1.22;100.00
59757;BME280;45631;51.962;5.974;2023-04-26T05:33:17;101771.72;;;1.29;100.00
59757;BME280;45631;51.962;5.974;2023-04-26T05:35:45;101780.31;;;1.32;100.00
59757;BME280;45631;51.962;5.974;2023-04-26T05:38:13;101777.63;;;1.39;100.00
59757;BME280;45631;51.962;5.974;2023-04-26T05:40:42;101780.16;;;1.46;100.00
59757;BME280;45631;51.962;5.974;2023-04-26T05:43:11;101766.19;;;1.57;100.00
59757;BME280;45631;51.962;5.974;2023-04-26T05:45:39;101771.28;;;1.63;100.00
59757;BME280;45631;51.962;5.974;2023-04-26T05:48:08;101774.63;;;1.73;100.00
59757;BME280;45631;51.962;5.974;2023-04-26T05:50:36;101780.56;;;1.81;100.00
59757;BME280;45631;51.962;5.974;2023-04-26T05:53:05;101786.44;;;1.95;100.00
59757;BME280;45631;51.962;5.974;2023-04-26T05:55:33;101780.31;;;1.99;100.00
59757;BME280;45631;51.962;5.974;2023-04-26T05:58:01;101787.97;;;2.09;100.00
59757;BME280;45631;51.962;5.974;2023-04-26T06:00:32;101783.50;;;2.18;100.00
59757;BME280;45631;51.962;5.974;2023-04-26T06:03:00;101779.88;;;2.29;100.00
59757;BME280;45631;51.962;5.974;2023-04-26T06:05:28;101783.97;;;2.44;100.00
59757;BME280;45631;51.962;5.974;2023-04-26T06:07:57;101782.75;;;2.65;100.00
59757;BME280;45631;51.962;5.974;2023-04-26T06:10:25;101786.97;;;2.72;100.00
59757;BME280;45631;51.962;5.974;2023-04-26T06:12:55;101791.06;;;2.85;100.00
59757;BME280;45631;51.962;5.974;2023-04-26T06:15:24;101784.81;;;2.96;100.00
59757;BME280;45631;51.962;5.974;2023-04-26T06:17:54;101794.94;;;3.11;100.00
59757;BME280;45631;51.962;5.974;2023-04-26T06:20:26;101791.22;;;3.25;100.00
59757;BME280;45631;51.962;5.974;2023-04-26T06:22:54;101802.13;;;3.42;100.00
59757;BME280;45631;51.962;5.974;2023-04-26T06:25:25;101801.78;;;3.59;100.00
59757;BME280;45631;51.962;5.974;2023-04-26T06:27:53;101800.66;;;3.72;100.00
59757;BME280;45631;51.962;5.974;2023-04-26T06:30:21;101805.41;;;3.94;100.00
59757;BME280;45631;51.962;5.974;2023-04-26T06:32:49;101797.16;;;4.13;100.00
59757;BME280;45631;51.962;5.974;2023-04-26T06:35:19;101797.75;;;4.26;100.00
59757;BME280;45631;51.962;5.974;2023-04-26T06:37:49;101798.25;;;4.40;100.00
59757;BME280;45631;51.962;5.974;2023-04-26T06:40:19;101799.53;;;4.60;100.00
59757;BME280;45631;51.962;5.974;2023-04-26T06:42:50;101803.59;;;4.70;100.00
59757;BME280;45631;51.962;5.974;2023-04-26T06:45:20;101797.16;;;4.85;100.00
59757;BME280;45631;51.962;5.974;2023-04-26T06:47:50;101804.75;;;4.94;100.00
59757;BME280;45631;51.962;5.974;2023-04-26T06:50:19;101811.50;;;5.01;100.00
59757;BME280;45631;51.962;5.974;2023-04-26T06:52:48;101809.50;;;5.11;100.00
59757;BME280;45631;51.962;5.974;2023-04-26T06:55:17;101809.34;;;5.17;100.00
59757;BME280;45631;51.962;5.974;2023-04-26T06:57:45;101808.97;;;5.31;100.00
59757;BME280;45631;51.962;5.974;2023-04-26T07:00:14;101807.78;;;5.43;100.00
59757;BME280;45631;51.962;5.974;2023-04-26T07:02:43;101806.56;;;5.55;100.00
59757;BME280;45631;51.962;5.974;2023-04-26T07:05:12;101820.25;;;5.63;100.00
59757;BME280;45631;51.962;5.974;2023-04-26T07:07:42;101825.06;;;5.77;100.00
59757;BME280;45631;51.962;5.974;2023-04-26T07:10:10;101819.44;;;5.91;100.00
59757;BME280;45631;51.962;5.974;2023-04-26T07:12:39;101823.38;;;6.06;100.00
59757;BME280;45631;51.962;5.974;2023-04-26T07:15:08;101820.16;;;6.26;100.00
59757;BME280;45631;51.962;5.974;2023-04-26T07:17:36;101822.31;;;6.40;100.00
59757;BME280;45631;51.962;5.974;2023-04-26T07:20:05;101821.69;;;6.58;100.00
59757;BME280;45631;51.962;5.974;2023-04-26T07:22:34;101823.06;;;6.70;100.00
59757;BME280;45631;51.962;5.974;2023-04-26T07:25:04;101823.34;;;6.88;100.00
59757;BME280;45631;51.962;5.974;2023-04-26T07:27:32;101821.13;;;7.02;100.00
59757;BME280;45631;51.962;5.974;2023-04-26T07:30:00;101826.78;;;7.15;100.00
59757;BME280;45631;51.962;5.974;2023-04-26T07:32:28;101816.13;;;7.21;100.00
59757;BME280;45631;51.962;5.974;2023-04-26T07:34:56;101819.25;;;7.31;100.00
59757;BME280;45631;51.962;5.974;2023-04-26T07:37:24;101817.22;;;7.39;100.00
59757;BME280;45631;51.962;5.974;2023-04-26T07:39:52;101810.69;;;7.51;100.00
59757;BME280;45631;51.962;5.974;2023-04-26T07:42:22;101804.81;;;7.68;100.00
59757;BME280;45631;51.962;5.974;2023-04-26T07:44:51;101816.69;;;7.77;100.00
59757;BME280;45631;51.962;5.974;2023-04-26T07:47:22;101808.59;;;7.83;100.00
59757;BME280;45631;51.962;5.974;2023-04-26T07:49:52;101808.94;;;7.98;100.00
59757;BME280;45631;51.962;5.974;2023-04-26T07:52:21;101806.06;;;8.04;100.00
59757;BME280;45631;51.962;5.974;2023-04-26T07:54:49;101810.88;;;8.15;100.00
59757;BME280;45631;51.962;5.974;2023-04-26T07:57:17;101808.63;;;8.27;100.00
59757;BME280;45631;51.962;5.974;2023-04-26T07:59:47;101812.72;;;8.35;100.00
59757;BME280;45631;51.962;5.974;2023-04-26T08:02:15;101814.75;;;8.50;100.00
59757;BME280;45631;51.962;5.974;2023-04-26T08:04:46;101808.81;;;8.67;100.00
59757;BME280;45631;51.962;5.974;2023-04-26T08:07:15;101813.78;;;8.73;100.00
59757;BME280;45631;51.962;5.974;2023-04-26T08:09:43;101809.22;;;8.78;100.00
59757;BME280;45631;51.962;5.974;2023-04-26T08:12:12;101812.50;;;8.84;100.00
59757;BME280;45631;51.962;5.974;2023-04-26T08:14:40;101817.41;;;8.91;100.00
59757;BME280;45631;51.962;5.974;2023-04-26T08:17:10;101817.69;;;9.06;100.00
59757;BME280;45631;51.962;5.974;2023-04-26T08:19:38;101826.31;;;9.08;100.00
59757;BME280;45631;51.962;5.974;2023-04-26T08:22:09;101825.47;;;9.07;100.00
59757;BME280;45631;51.962;5.974;2023-04-26T08:24:38;101824.09;;;9.19;100.00
59757;BME280;45631;51.962;5.974;2023-04-26T08:27:06;101820.41;;;9.23;100.00
59757;BME280;45631;51.962;5.974;2023-04-26T08:29:34;101825.53;;;9.26;100.00
59757;BME280;45631;51.962;5.974;2023-04-26T08:32:02;101828.53;;;9.38;100.00
59757;BME280;45631;51.962;5.974;2023-04-26T08:34:32;101830.16;;;9.40;100.00
59757;BME280;45631;51.962;5.974;2023-04-26T08:37:00;101824.28;;;9.54;100.00
59757;BME280;45631;51.962;5.974;2023-04-26T08:39:28;101813.88;;;9.91;100.00
59757;BME280;45631;51.962;5.974;2023-04-26T08:42:03;101819.47;;;10.21;100.00
59757;BME280;45631;51.962;5.974;2023-04-26T08:44:34;101821.53;;;10.51;99.72
59757;BME280;45631;51.962;5.974;2023-04-26T08:47:08;101819.69;;;10.53;98.20
59757;BME280;45631;51.962;5.974;2023-04-26T08:49:40;101817.06;;;10.53;97.23
59757;BME280;45631;51.962;5.974;2023-04-26T08:52:11;101819.06;;;10.65;100.00
59757;BME280;45631;51.962;5.974;2023-04-26T08:54:40;101814.22;;;10.21;97.61
59757;BME280;45631;51.962;5.974;2023-04-26T08:57:08;101818.38;;;10.62;100.00
59757;BME280;45631;51.962;5.974;2023-04-26T08:59:37;101813.28;;;10.76;97.46
59757;BME280;45631;51.962;5.974;2023-04-26T09:02:06;101818.47;;;10.78;92.73
59757;BME280;45631;51.962;5.974;2023-04-26T09:04:36;101810.34;;;10.82;94.46
59757;BME280;45631;51.962;5.974;2023-04-26T09:07:07;101816.00;;;10.75;91.03
59757;BME280;45631;51.962;5.974;2023-04-26T09:09:40;101811.25;;;10.27;88.84
59757;BME280;45631;51.962;5.974;2023-04-26T09:12:11;101815.06;;;10.58;92.17
59757;BME280;45631;51.962;5.974;2023-04-26T09:14:39;101805.91;;;10.48;91.88
59757;BME280;45631;51.962;5.974;2023-04-26T09:17:25;101806.34;;;10.39;92.72
59757;BME280;45631;51.962;5.974;2023-04-26T09:19:54;101808.06;;;10.21;93.96
59757;BME280;45631;51.962;5.974;2023-04-26T09:22:32;101812.19;;;10.26;94.10
59757;BME280;45631;51.962;5.974;2023-04-26T09:25:00;101807.22;;;10.20;95.77
59757;BME280;45631;51.962;5.974;2023-04-26T09:27:33;101804.44;;;10.23;93.31
59757;BME280;45631;51.962;5.974;2023-04-26T09:30:06;101805.69;;;10.35;94.46
59757;BME280;45631;51.962;5.974;2023-04-26T09:32:44;101802.03;;;10.38;91.40
59757;BME280;45631;51.962;5.974;2023-04-26T09:35:24;101804.59;;;10.20;91.78
59757;BME280;45631;51.962;5.974;2023-04-26T09:37:56;101807.88;;;10.25;90.26
59757;BME280;45631;51.962;5.974;2023-04-26T09:40:34;101806.75;;;10.12;90.09
59757;BME280;45631;51.962;5.974;2023-04-26T09:43:04;101806.53;;;10.17;92.66
59757;BME280;45631;51.962;5.974;2023-04-26T09:45:43;101802.53;;;10.46;91.33
59757;BME280;45631;51.962;5.974;2023-04-26T09:48:16;101809.47;;;10.28;90.13
59757;BME280;45631;51.962;5.974;2023-04-26T09:50:44;101801.97;;;10.20;92.28
59757;BME280;45631;51.962;5.974;2023-04-26T09:53:27;101804.94;;;10.31;90.27
59757;BME280;45631;51.962;5.974;2023-04-26T09:56:05;101806.50;;;10.36;89.06
59757;BME280;45631;51.962;5.974;2023-04-26T09:58:34;101805.69;;;10.35;81.15
59757;BME280;45631;51.962;5.974;2023-04-26T10:01:03;101810.00;;;10.36;83.06
59757;BME280;45631;51.962;5.974;2023-04-26T10:03:33;101807.78;;;10.46;82.27
59757;BME280;45631;51.962;5.974;2023-04-26T10:06:02;101808.22;;;10.37;80.42
59757;BME280;45631;51.962;5.974;2023-04-26T10:08:32;101814.97;;;10.23;84.26
59757;BME280;45631;51.962;5.974;2023-04-26T10:11:02;101809.50;;;10.09;85.95
59757;BME280;45631;51.962;5.974;2023-04-26T10:13:31;101803.13;;;10.14;89.21
59757;BME280;45631;51.962;5.974;2023-04-26T10:15:59;101806.16;;;10.24;89.97
59757;BME280;45631;51.962;5.974;2023-04-26T10:18:28;101806.97;;;10.07;89.63
59757;BME280;45631;51.962;5.974;2023-04-26T10:20:59;101807.66;;;10.11;90.75
59757;BME280;45631;51.962;5.974;2023-04-26T10:23:32;101803.06;;;10.16;89.88
59757;BME280;45631;51.962;5.974;2023-04-26T10:26:03;101797.50;;;10.03;91.98
59757;BME280;45631;51.962;5.974;2023-04-26T10:28:53;101796.09;;;10.15;91.46
59757;BME280;45631;51.962;5.974;2023-04-26T10:34:31;101803.56;;;10.05;89.67
59757;BME280;45631;51.962;5.974;2023-04-26T10:37:08;101804.06;;;10.13;89.17
59757;BME280;45631;51.962;5.974;2023-04-26T10:39:38;101800.38;;;9.98;88.02
59757;BME280;45631;51.962;5.974;2023-04-26T10:42:24;101802.41;;;10.11;87.29
59757;BME280;45631;51.962;5.974;2023-04-26T10:44:54;101801.81;;;10.23;89.04
59757;BME280;45631;51.962;5.974;2023-04-26T10:47:30;101800.00;;;10.25;88.61
59757;BME280;45631;51.962;5.974;2023-04-26T10:50:03;101789.91;;;10.35;90.22
59757;BME280;45631;51.962;5.974;2023-04-26T10:52:32;101801.03;;;10.40;88.19
59757;BME280;45631;51.962;5.974;2023-04-26T10:55:03;101791.84;;;10.49;88.84
59757;BME280;45631;51.962;5.974;2023-04-26T10:57:48;101797.41;;;10.24;86.15
59757;BME280;45631;51.962;5.974;2023-04-26T11:00:27;101797.13;;;10.30;84.03
59757;BME280;45631;51.962;5.974;2023-04-26T11:03:02;101792.00;;;10.46;86.99
59757;BME280;45631;51.962;5.974;2023-04-26T11:08:23;101795.91;;;10.37;82.06
59757;BME280;45631;51.962;5.974;2023-04-26T11:11:05;101796.63;;;10.41;85.37
59757;BME280;45631;51.962;5.974;2023-04-26T11:13:35;101794.09;;;10.57;82.42
59757;BME280;45631;51.962;5.974;2023-04-26T11:16:05;101793.78;;;10.63;78.43
59757;BME280;45631;51.962;5.974;2023-04-26T11:18:35;101794.41;;;10.68;79.88
59757;BME280;45631;51.962;5.974;2023-04-26T11:21:05;101789.13;;;10.68;80.09
59757;BME280;45631;51.962;5.974;2023-04-26T11:23:34;101789.06;;;10.70;79.83
59757;BME280;45631;51.962;5.974;2023-04-26T11:26:04;101783.41;;;10.77;81.07
59757;BME280;45631;51.962;5.974;2023-04-26T11:28:36;101785.34;;;10.74;79.54
59757;BME280;45631;51.962;5.974;2023-04-26T11:31:05;101789.50;;;10.78;79.46
59757;BME280;45631;51.962;5.974;2023-04-26T11:33:36;101791.78;;;10.68;81.77
59757;BME280;45631;51.962;5.974;2023-04-26T11:36:05;101778.44;;;10.54;78.74
59757;BME280;45631;51.962;5.974;2023-04-26T11:38:33;101778.84;;;10.63;79.67
59757;BME280;45631;51.962;5.974;2023-04-26T11:41:03;101784.97;;;10.81;78.16
59757;BME280;45631;51.962;5.974;2023-04-26T11:43:35;101777.28;;;10.94;79.08
59757;BME280;45631;51.962;5.974;2023-04-26T11:46:04;101778.34;;;11.08;78.84
59757;BME280;45631;51.962;5.974;2023-04-26T11:48:36;101776.84;;;11.20;76.24
59757;BME280;45631;51.962;5.974;2023-04-26T11:51:05;101768.16;;;11.18;77.59
59757;BME280;45631;51.962;5.974;2023-04-26T11:53:35;101771.81;;;11.15;77.30
59757;BME280;45631;51.962;5.974;2023-04-26T11:56:12;101771.28;;;11.08;77.99
59757;BME280;45631;51.962;5.974;2023-04-26T11:58:45;101765.88;;;11.27;78.23
59757;BME280;45631;51.962;5.974;2023-04-26T12:01:20;101767.72;;;11.43;74.13
59757;BME280;45631;51.962;5.974;2023-04-26T12:03:50;101766.88;;;11.58;73.70
59757;BME280;45631;51.962;5.974;2023-04-26T12:06:19;101765.03;;;11.60;74.53
59757;BME280;45631;51.962;5.974;2023-04-26T12:08:48;101770.19;;;11.62;68.33
59757;BME280;45631;51.962;5.974;2023-04-26T12:11:19;101769.91;;;11.50;70.37
59757;BME280;45631;51.962;5.974;2023-04-26T12:13:47;101774.44;;;11.48;69.93
59757;BME280;45631;51.962;5.974;2023-04-26T12:16:15;101773.44;;;11.67;71.39
59757;BME280;45631;51.962;5.974;2023-04-26T12:18:53;101772.41;;;11.70;71.20
59757;BME280;45631;51.962;5.974;2023-04-26T12:21:23;101776.50;;;11.75;69.56
59757;BME280;45631;51.962;5.974;2023-04-26T12:23:56;101775.47;;;12.10;67.00
59757;BME280;45631;51.962;5.974;2023-04-26T12:26:44;101777.88;;;12.45;62.76
59757;BME280;45631;51.962;5.974;2023-04-26T12:29:12;101772.44;;;12.93;65.42
59757;BME280;45631;51.962;5.974;2023-04-26T12:31:40;101769.63;;;13.10;64.05
59757;BME280;45631;51.962;5.974;2023-04-26T12:34:08;101764.66;;;12.90;65.25
59757;BME280;45631;51.962;5.974;2023-04-26T12:36:39;101769.47;;;12.68;62.89
59757;BME280;45631;51.962;5.974;2023-04-26T12:39:09;101762.81;;;12.92;64.78
59757;BME280;45631;51.962;5.974;2023-04-26T12:41:39;101767.31;;;12.90;59.18
59757;BME280;45631;51.962;5.974;2023-04-26T12:44:09;101765.00;;;12.99;59.47
59757;BME280;45631;51.962;5.974;2023-04-26T12:46:37;101757.97;;;13.13;62.81
59757;BME280;45631;51.962;5.974;2023-04-26T12:49:06;101762.25;;;13.30;63.33
59757;BME280;45631;51.962;5.974;2023-04-26T12:51:34;101764.69;;;13.33;64.01
59757;BME280;45631;51.962;5.974;2023-04-26T12:54:02;101761.81;;;12.64;63.27
59757;BME280;45631;51.962;5.974;2023-04-26T12:56:33;101765.22;;;12.36;63.81
59757;BME280;45631;51.962;5.974;2023-04-26T12:59:08;101765.50;;;12.76;65.16
59757;BME280;45631;51.962;5.974;2023-04-26T13:01:36;101766.81;;;12.68;62.75
59757;BME280;45631;51.962;5.974;2023-04-26T13:04:04;101770.28;;;12.55;63.04
59757;BME280;45631;51.962;5.974;2023-04-26T13:06:35;101768.38;;;12.26;63.85
59757;BME280;45631;51.962;5.974;2023-04-26T13:09:04;101766.56;;;12.43;63.28
59757;BME280;45631;51.962;5.974;2023-04-26T13:11:33;101761.50;;;12.54;65.30